createdAt,value
2019-02-05T00:00:12.181Z,78.04
2019-02-05T00:01:12.248Z,76.06
2019-02-05T00:02:12.162Z,77.51
2019-02-05T00:03:12.173Z,76.92
2019-02-05T00:04:12.140Z,77.45
2019-02-05T00:05:12.125Z,77.76
2019-02-05T00:06:12.129Z,77.76
2019-02-05T00:07:12.106Z,77.97
2019-02-05T00:08:12.112Z,77.24
2019-02-05T00:09:12.098Z,76.92
2019-02-05T00:10:12.073Z,78.39
2019-02-05T00:11:12.070Z,78.28
2019-02-05T00:12:12.063Z,77.76
2019-02-05T00:13:12.062Z,77.59
2019-02-05T00:14:12.025Z,77.27
2019-02-05T00:15:12.012Z,77.48
2019-02-05T00:16:12.010Z,78.21
2019-02-05T00:17:11.994Z,79.99
2019-02-05T00:18:12.004Z,78.07
2019-02-05T00:19:11.969Z,77.97
2019-02-05T00:20:11.963Z,76.61
2019-02-05T00:21:11.946Z,77.17
2019-02-05T00:22:11.937Z,79.15
2019-02-05T00:23:11.942Z,78.42
2019-02-05T00:24:11.927Z,79.74
2019-02-05T00:25:11.907Z,77.48
2019-02-05T00:26:11.893Z,78.53
2019-02-05T00:27:11.888Z,79.64
2019-02-05T00:28:11.895Z,79.22
2019-02-05T00:29:11.869Z,78.00
2019-02-05T00:30:11.869Z,79.15
2019-02-05T00:31:11.839Z,78.11
2019-02-05T00:32:11.824Z,77.59
2019-02-05T00:33:11.982Z,76.86
2019-02-05T00:34:11.808Z,77.69
2019-02-05T00:35:11.833Z,77.80
2019-02-05T00:36:11.798Z,79.15
2019-02-05T00:37:11.774Z,78.00
2019-02-05T00:38:11.758Z,78.94
2019-02-05T00:39:11.764Z,79.22
2019-02-05T00:40:11.740Z,77.06
2019-02-05T00:41:11.733Z,77.38
2019-02-05T00:42:11.715Z,77.59
2019-02-05T00:43:11.708Z,78.28
2019-02-05T00:44:11.713Z,77.90
2019-02-05T00:45:11.695Z,77.34
2019-02-05T00:46:11.673Z,76.51
2019-02-05T00:47:11.669Z,77.24
2019-02-05T00:48:11.654Z,77.06
2019-02-05T00:49:11.683Z,76.54
2019-02-05T00:50:11.626Z,77.45
2019-02-05T00:51:11.646Z,77.27
2019-02-05T00:52:11.612Z,77.80
2019-02-05T00:53:11.599Z,77.17
2019-02-05T00:54:11.614Z,76.40
2019-02-05T00:55:11.572Z,77.06
2019-02-05T00:56:17.610Z,77.17
2019-02-05T00:57:12.570Z,77.48
2019-02-05T00:58:11.546Z,77.27
2019-02-05T00:59:11.555Z,77.17
2019-02-05T01:00:11.521Z,77.27
2019-02-05T01:01:11.514Z,77.17
2019-02-05T01:02:11.493Z,76.96
2019-02-05T01:03:11.482Z,77.59
2019-02-05T01:04:11.487Z,76.12
2019-02-05T01:05:11.466Z,76.75
2019-02-05T01:06:11.538Z,77.59
2019-02-05T01:07:11.442Z,76.96
2019-02-05T01:08:11.443Z,77.48
2019-02-05T01:09:11.723Z,76.44
2019-02-05T01:10:11.412Z,76.96
2019-02-05T01:11:11.401Z,77.48
2019-02-05T01:12:11.388Z,76.54
2019-02-05T01:13:11.374Z,77.59
2019-02-05T01:14:11.866Z,76.44
2019-02-05T01:15:11.353Z,76.44
2019-02-05T01:16:11.354Z,76.33
2019-02-05T01:17:11.365Z,76.02
2019-02-05T01:18:11.338Z,76.20
2019-02-05T01:19:11.312Z,75.71
2019-02-05T01:20:11.297Z,77.14
2019-02-05T01:21:11.289Z,76.96
2019-02-05T01:22:11.296Z,75.67
2019-02-05T01:23:11.260Z,76.23
2019-02-05T01:24:11.253Z,76.61
2019-02-05T01:25:11.264Z,76.20
2019-02-05T01:26:11.230Z,75.88
2019-02-05T01:27:11.230Z,74.84
2019-02-05T01:28:11.213Z,75.57
2019-02-05T01:29:11.203Z,76.30
2019-02-05T01:30:11.202Z,75.46
2019-02-05T01:31:11.177Z,74.84
2019-02-05T01:32:11.167Z,74.73
2019-02-05T01:33:11.169Z,75.39
2019-02-05T01:34:11.145Z,75.71
2019-02-05T01:35:11.145Z,75.92
2019-02-05T01:36:11.123Z,75.67
2019-02-05T01:37:11.118Z,74.98
2019-02-05T01:38:11.279Z,75.67
2019-02-05T01:39:11.099Z,75.18
2019-02-05T01:40:11.103Z,75.81
2019-02-05T01:41:11.064Z,75.78
2019-02-05T01:42:11.057Z,74.98
2019-02-05T01:43:11.048Z,75.57
2019-02-05T01:44:11.038Z,74.84
2019-02-05T01:45:11.043Z,75.26
2019-02-05T01:46:11.094Z,74.73
2019-02-05T01:47:11.005Z,75.05
2019-02-05T01:48:10.988Z,75.46
2019-02-05T01:49:10.978Z,74.84
2019-02-05T01:50:11.022Z,74.21
2019-02-05T01:51:10.950Z,75.05
2019-02-05T01:52:10.946Z,74.42
2019-02-05T01:53:11.024Z,75.57
2019-02-05T01:54:10.922Z,74.84
2019-02-05T01:55:10.926Z,75.26
2019-02-05T01:56:10.907Z,74.84
2019-02-05T01:57:10.911Z,74.73
2019-02-05T01:58:10.877Z,74.52
2019-02-05T01:59:10.866Z,74.11
2019-02-05T02:00:10.877Z,74.63
2019-02-05T02:01:10.846Z,74.94
2019-02-05T02:02:10.876Z,75.05
2019-02-05T02:03:10.822Z,74.49
2019-02-05T02:04:10.810Z,74.73
2019-02-05T02:05:10.834Z,73.79
2019-02-05T02:06:10.799Z,73.17
2019-02-05T02:07:10.777Z,73.20
2019-02-05T02:08:10.775Z,73.62
2019-02-05T02:09:10.758Z,73.93
2019-02-05T02:10:10.744Z,74.14
2019-02-05T02:11:10.756Z,74.59
2019-02-05T02:12:10.726Z,74.59
2019-02-05T02:13:10.712Z,74.49
2019-02-05T02:14:10.705Z,74.49
2019-02-05T02:15:10.691Z,74.49
2019-02-05T02:16:10.696Z,74.80
2019-02-05T02:17:10.671Z,74.59
2019-02-05T02:18:10.655Z,74.80
2019-02-05T02:19:10.642Z,74.59
2019-02-05T02:20:10.642Z,74.80
2019-02-05T02:21:10.638Z,74.80
2019-02-05T02:22:10.610Z,74.69
2019-02-05T02:23:10.610Z,74.91
2019-02-05T02:24:10.598Z,74.59
2019-02-05T02:25:10.581Z,74.49
2019-02-05T02:26:10.586Z,74.77
2019-02-05T02:27:10.602Z,74.69
2019-02-05T02:28:10.628Z,74.45
2019-02-05T02:29:10.534Z,74.07
2019-02-05T02:30:10.520Z,74.04
2019-02-05T02:31:10.526Z,74.28
2019-02-05T02:32:10.504Z,74.24
2019-02-05T02:33:10.486Z,74.04
2019-02-05T02:34:10.474Z,74.24
2019-02-05T02:35:10.472Z,74.04
2019-02-05T02:36:10.478Z,73.83
2019-02-05T02:37:10.454Z,74.04
2019-02-05T02:38:10.434Z,73.83
2019-02-05T02:39:10.424Z,73.93
2019-02-05T02:40:10.408Z,74.45
2019-02-05T02:41:10.424Z,74.04
2019-02-05T02:42:10.396Z,73.52
2019-02-05T02:43:10.386Z,73.41
2019-02-05T02:44:10.366Z,73.62
2019-02-05T02:45:10.355Z,73.30
2019-02-05T02:46:10.424Z,72.78
2019-02-05T02:47:10.332Z,73.62
2019-02-05T02:48:10.325Z,73.30
2019-02-05T02:49:10.317Z,73.52
2019-02-05T02:50:10.300Z,73.52
2019-02-05T02:51:10.312Z,72.89
2019-02-05T02:52:10.279Z,73.10
2019-02-05T02:53:10.285Z,73.20
2019-02-05T02:54:10.270Z,72.96
2019-02-05T02:55:10.251Z,73.41
2019-02-05T02:56:10.274Z,73.20
2019-02-05T02:57:10.220Z,73.20
2019-02-05T02:58:13.476Z,73.20
2019-02-05T02:59:10.208Z,73.20
2019-02-05T03:00:10.202Z,73.20
2019-02-05T03:01:10.204Z,72.99
2019-02-05T03:02:10.169Z,73.27
2019-02-05T03:03:10.160Z,73.62
2019-02-05T03:04:10.148Z,73.38
2019-02-05T03:05:10.136Z,73.27
2019-02-05T03:06:10.143Z,72.99
2019-02-05T03:07:10.118Z,72.78
2019-02-05T03:08:10.105Z,72.78
2019-02-05T03:09:10.095Z,72.54
2019-02-05T03:10:10.081Z,72.68
2019-02-05T03:11:10.084Z,72.78
2019-02-05T03:12:10.060Z,73.20
2019-02-05T03:13:10.053Z,72.47
2019-02-05T03:14:10.043Z,73.38
2019-02-05T03:15:10.031Z,72.99
2019-02-05T03:16:10.029Z,72.16
2019-02-05T03:17:10.028Z,72.05
2019-02-05T03:18:09.989Z,72.16
2019-02-05T03:19:10.004Z,72.68
2019-02-05T03:20:09.971Z,71.95
2019-02-05T03:21:09.956Z,71.84
2019-02-05T03:22:09.965Z,72.89
2019-02-05T03:23:09.945Z,72.75
2019-02-05T03:24:09.923Z,72.36
2019-02-05T03:25:09.918Z,72.47
2019-02-05T03:26:09.901Z,72.58
2019-02-05T03:27:17.195Z,71.84
2019-02-05T03:28:10.889Z,72.58
2019-02-05T03:29:09.877Z,72.54
2019-02-05T03:30:09.864Z,72.96
2019-02-05T03:31:09.875Z,72.58
2019-02-05T03:32:10.070Z,72.68
2019-02-05T03:33:09.826Z,73.10
2019-02-05T03:34:09.820Z,72.68
2019-02-05T03:35:09.815Z,72.89
2019-02-05T03:36:10.320Z,72.68
2019-02-05T03:37:09.801Z,72.78
2019-02-05T03:38:09.774Z,73.30
2019-02-05T03:39:09.759Z,72.58
2019-02-05T03:40:09.754Z,72.96
2019-02-05T03:41:09.750Z,72.47
2019-02-05T03:42:09.744Z,73.10
2019-02-05T03:43:09.712Z,73.10
2019-02-05T03:44:09.703Z,72.47
2019-02-05T03:45:09.697Z,72.99
2019-02-05T03:46:09.686Z,73.10
2019-02-05T03:47:09.700Z,73.30
2019-02-05T03:48:09.671Z,72.99
2019-02-05T03:49:09.654Z,73.30
2019-02-05T03:50:09.640Z,73.20
2019-02-05T03:51:09.626Z,73.41
2019-02-05T03:52:09.651Z,72.99
2019-02-05T03:53:09.612Z,73.10
2019-02-05T03:54:09.600Z,72.99
2019-02-05T03:55:09.574Z,73.20
2019-02-05T03:56:09.580Z,73.10
2019-02-05T03:57:10.382Z,73.10
2019-02-05T03:58:09.558Z,72.89
2019-02-05T03:59:09.536Z,72.89
2019-02-05T04:00:09.532Z,72.89
2019-02-05T04:01:09.513Z,73.30
2019-02-05T04:02:09.523Z,72.78
2019-02-05T04:03:09.511Z,72.89
2019-02-05T04:04:09.499Z,72.58
2019-02-05T04:05:09.489Z,73.10
2019-02-05T04:06:09.515Z,72.99
2019-02-05T04:07:09.459Z,72.47
2019-02-05T04:08:09.454Z,72.58
2019-02-05T04:09:09.434Z,73.10
2019-02-05T04:10:09.425Z,73.20
2019-02-05T04:11:09.421Z,72.75
2019-02-05T04:12:09.394Z,73.10
2019-02-05T04:13:09.398Z,72.47
2019-02-05T04:14:09.368Z,72.58
2019-02-05T04:15:09.367Z,72.58
2019-02-05T04:16:09.352Z,72.58
2019-02-05T04:17:09.340Z,72.68
2019-02-05T04:18:09.358Z,73.10
2019-02-05T04:19:09.320Z,73.27
2019-02-05T04:20:09.314Z,73.07
2019-02-05T04:21:09.300Z,73.38
2019-02-05T04:22:09.294Z,73.30
2019-02-05T04:23:09.286Z,73.20
2019-02-05T04:24:09.261Z,72.89
2019-02-05T04:25:09.259Z,72.64
2019-02-05T04:26:09.246Z,72.54
2019-02-05T04:27:09.232Z,72.64
2019-02-05T04:28:09.248Z,72.44
2019-02-05T04:29:09.202Z,72.68
2019-02-05T04:30:09.195Z,72.89
2019-02-05T04:31:09.186Z,72.58
2019-02-05T04:32:09.179Z,72.58
2019-02-05T04:33:09.188Z,72.68
2019-02-05T04:34:09.151Z,72.99
2019-02-05T04:35:09.137Z,73.17
2019-02-05T04:36:09.131Z,72.44
2019-02-05T04:37:09.129Z,73.07
2019-02-05T04:38:09.120Z,72.64
2019-02-05T04:39:09.095Z,72.96
2019-02-05T04:40:09.083Z,72.96
2019-02-05T04:41:09.075Z,72.44
2019-02-05T04:42:09.062Z,72.75
2019-02-05T04:43:09.087Z,72.13
2019-02-05T04:44:09.053Z,72.44
2019-02-05T04:45:09.026Z,72.64
2019-02-05T04:46:09.035Z,72.75
2019-02-05T04:47:09.002Z,72.44
2019-02-05T04:48:09.000Z,72.64
2019-02-05T04:49:09.030Z,72.85
2019-02-05T04:50:08.980Z,73.27
2019-02-05T04:51:09.016Z,72.75
2019-02-05T04:52:08.948Z,72.58
2019-02-05T04:53:08.945Z,72.44
2019-02-05T04:54:08.944Z,73.41
2019-02-05T04:55:08.919Z,73.62
2019-02-05T04:56:08.920Z,74.04
2019-02-05T04:57:08.901Z,74.77
2019-02-05T04:58:08.886Z,74.87
2019-02-05T04:59:08.892Z,75.29
2019-02-05T05:00:08.856Z,76.20
2019-02-05T05:01:08.854Z,77.59
2019-02-05T05:02:08.871Z,78.42
2019-02-05T05:03:08.828Z,79.57
2019-02-05T05:04:08.832Z,80.24
2019-02-05T05:05:08.806Z,80.02
2019-02-05T05:06:09.361Z,80.55
2019-02-05T05:07:08.785Z,81.28
2019-02-05T05:08:08.777Z,82.01
2019-02-05T05:09:08.808Z,82.15
2019-02-05T05:10:08.754Z,83.72
2019-02-05T05:11:08.745Z,84.87
2019-02-05T05:12:08.724Z,85.39
2019-02-05T05:13:08.725Z,86.23
2019-02-05T05:14:08.741Z,87.10
2019-02-05T05:15:08.692Z,86.79
2019-02-05T05:16:08.687Z,87.00
2019-02-05T05:17:08.688Z,86.90
2019-02-05T05:18:09.343Z,86.90
2019-02-05T05:19:08.674Z,87.21
2019-02-05T05:20:08.697Z,87.25
2019-02-05T05:21:08.633Z,86.72
2019-02-05T05:22:08.617Z,86.47
2019-02-05T05:23:08.624Z,86.58
2019-02-05T05:24:08.624Z,85.96
2019-02-05T05:25:08.616Z,85.74
2019-02-05T05:26:08.599Z,86.58
2019-02-05T05:27:08.563Z,86.16
2019-02-05T05:28:10.456Z,85.43
2019-02-05T05:29:08.723Z,85.33
2019-02-05T05:30:08.538Z,85.43
2019-02-05T05:31:08.537Z,85.33
2019-02-05T05:32:08.509Z,85.64
2019-02-05T05:33:08.506Z,85.43
2019-02-05T05:34:08.482Z,85.39
2019-02-05T05:35:08.509Z,85.50
2019-02-05T05:36:08.471Z,84.70
2019-02-05T05:37:08.470Z,84.66
2019-02-05T05:38:08.444Z,85.01
2019-02-05T05:39:08.428Z,85.29
2019-02-05T05:40:08.471Z,84.66
2019-02-05T05:41:08.404Z,84.87
2019-02-05T05:42:08.407Z,84.91
2019-02-05T05:43:08.381Z,84.66
2019-02-05T05:44:09.570Z,84.77
2019-02-05T05:45:08.376Z,84.66
2019-02-05T05:46:08.358Z,84.14
2019-02-05T05:47:08.340Z,83.72
2019-02-05T05:48:08.335Z,83.62
2019-02-05T05:49:08.319Z,82.26
2019-02-05T05:50:08.350Z,82.36
2019-02-05T05:51:08.299Z,82.99
2019-02-05T05:52:08.281Z,82.89
2019-02-05T05:53:08.278Z,82.78
2019-02-05T05:54:08.274Z,82.53
2019-02-05T05:55:08.278Z,81.90
2019-02-05T05:56:08.250Z,82.26
2019-02-05T05:57:08.231Z,81.80
2019-02-05T05:58:08.222Z,82.22
2019-02-05T05:59:08.213Z,82.43
2019-02-05T06:00:08.219Z,81.73
2019-02-05T06:01:08.192Z,81.90
2019-02-05T06:02:08.177Z,81.73
2019-02-05T06:03:08.165Z,81.59
2019-02-05T06:04:08.152Z,81.73
2019-02-05T06:05:08.185Z,81.80
2019-02-05T06:06:08.129Z,81.38
2019-02-05T06:07:08.120Z,81.18
2019-02-05T06:08:08.111Z,80.86
2019-02-05T06:09:08.111Z,80.44
2019-02-05T06:10:08.107Z,80.44
2019-02-05T06:11:08.083Z,80.24
2019-02-05T06:12:08.066Z,81.07
2019-02-05T06:13:08.055Z,80.55
2019-02-05T06:14:08.048Z,80.55
2019-02-05T06:15:08.048Z,80.44
2019-02-05T06:16:08.038Z,80.86
2019-02-05T06:17:08.024Z,80.30
2019-02-05T06:18:07.998Z,80.20
2019-02-05T06:19:07.988Z,79.68
2019-02-05T06:20:07.990Z,79.47
2019-02-05T06:21:07.996Z,79.68
2019-02-05T06:22:07.966Z,79.57
2019-02-05T06:23:07.948Z,78.42
2019-02-05T06:24:07.932Z,79.36
2019-02-05T06:25:07.921Z,79.05
2019-02-05T06:26:07.932Z,79.26
2019-02-05T06:27:07.906Z,78.42
2019-02-05T06:28:07.896Z,77.90
2019-02-05T06:29:07.905Z,78.21
2019-02-05T06:30:07.868Z,78.11
2019-02-05T06:31:07.870Z,77.90
2019-02-05T06:32:07.853Z,77.69
2019-02-05T06:33:07.838Z,77.69
2019-02-05T06:34:07.832Z,77.80
2019-02-05T06:35:07.809Z,77.69
2019-02-05T06:36:07.823Z,77.69
2019-02-05T06:37:07.802Z,76.92
2019-02-05T06:38:07.814Z,77.59
2019-02-05T06:39:07.769Z,77.38
2019-02-05T06:40:07.770Z,76.44
2019-02-05T06:41:07.888Z,77.06
2019-02-05T06:42:07.740Z,75.88
2019-02-05T06:43:07.720Z,76.33
2019-02-05T06:44:07.706Z,76.51
2019-02-05T06:45:07.705Z,75.81
2019-02-05T06:46:07.711Z,76.40
2019-02-05T06:47:07.672Z,75.88
2019-02-05T06:48:07.665Z,75.98
2019-02-05T06:49:07.674Z,75.78
2019-02-05T06:50:07.645Z,75.78
2019-02-05T06:51:07.648Z,74.73
2019-02-05T06:52:07.645Z,75.26
2019-02-05T06:53:07.611Z,74.73
2019-02-05T06:54:07.596Z,75.26
2019-02-05T06:55:07.590Z,75.36
2019-02-05T06:56:07.579Z,75.15
2019-02-05T06:57:07.587Z,74.52
2019-02-05T06:58:07.555Z,74.73
2019-02-05T06:59:07.544Z,74.84
2019-02-05T07:00:07.533Z,75.15
2019-02-05T07:01:07.534Z,74.63
2019-02-05T07:02:07.537Z,74.84
2019-02-05T07:03:07.517Z,74.73
2019-02-05T07:04:07.483Z,74.38
2019-02-05T07:05:07.475Z,74.32
2019-02-05T07:06:07.469Z,74.94
2019-02-05T07:07:07.474Z,74.63
2019-02-05T07:08:07.450Z,74.84
2019-02-05T07:09:07.437Z,74.94
2019-02-05T07:10:07.420Z,74.70
2019-02-05T07:11:07.426Z,74.52
2019-02-05T07:12:07.415Z,74.70
2019-02-05T07:13:07.398Z,74.49
2019-02-05T07:14:07.384Z,74.38
2019-02-05T07:15:07.362Z,73.97
2019-02-05T07:16:07.355Z,74.18
2019-02-05T07:17:07.363Z,74.18
2019-02-05T07:18:07.352Z,73.86
2019-02-05T07:19:07.330Z,73.86
2019-02-05T07:20:07.330Z,73.76
2019-02-05T07:21:07.301Z,74.07
2019-02-05T07:22:07.323Z,74.28
2019-02-05T07:23:07.282Z,73.86
2019-02-05T07:24:07.268Z,73.34
2019-02-05T07:25:07.275Z,73.86
2019-02-05T07:26:07.244Z,74.07
2019-02-05T07:27:07.283Z,73.55
2019-02-05T07:28:07.236Z,73.55
2019-02-05T07:29:07.346Z,73.97
2019-02-05T07:30:07.203Z,74.07
2019-02-05T07:31:07.204Z,74.07
2019-02-05T07:32:07.185Z,74.28
2019-02-05T07:33:07.186Z,73.66
2019-02-05T07:34:07.161Z,73.55
2019-02-05T07:35:07.146Z,73.55
2019-02-05T07:36:07.135Z,73.97
2019-02-05T07:37:07.133Z,73.76
2019-02-05T07:38:07.209Z,74.38
2019-02-05T07:39:07.103Z,74.07
2019-02-05T07:40:07.105Z,73.45
2019-02-05T07:41:07.077Z,73.41
2019-02-05T07:42:07.070Z,74.07
2019-02-05T07:43:07.069Z,73.86
2019-02-05T07:44:07.081Z,74.18
2019-02-05T07:45:07.039Z,74.28
2019-02-05T07:46:07.023Z,74.38
2019-02-05T07:47:07.011Z,74.70
2019-02-05T07:48:07.013Z,75.40
2019-02-05T07:49:06.992Z,74.56
2019-02-05T07:50:06.976Z,73.41
2019-02-05T07:51:06.969Z,74.46
2019-02-05T07:52:06.971Z,73.93
2019-02-05T07:53:06.969Z,73.72
2019-02-05T07:54:06.945Z,73.31
2019-02-05T07:55:06.954Z,72.75
2019-02-05T07:56:06.916Z,73.21
2019-02-05T07:57:06.897Z,74.56
2019-02-05T07:58:06.924Z,73.93
2019-02-05T07:59:10.423Z,74.52
2019-02-05T08:00:06.871Z,74.21
2019-02-05T08:01:06.865Z,73.69
2019-02-05T08:02:06.844Z,73.38
2019-02-05T08:03:06.850Z,73.49
2019-02-05T08:04:06.828Z,73.17
2019-02-05T08:05:06.836Z,74.01
2019-02-05T08:06:06.826Z,72.86
2019-02-05T08:07:07.704Z,72.86
2019-02-05T08:08:06.809Z,72.65
2019-02-05T08:09:06.789Z,73.07
2019-02-05T08:10:06.757Z,72.86
2019-02-05T08:11:06.758Z,72.86
2019-02-05T08:12:06.734Z,73.49
2019-02-05T08:13:06.716Z,73.07
2019-02-05T08:14:06.726Z,73.27
2019-02-05T08:15:06.698Z,73.59
2019-02-05T08:16:06.693Z,73.69
2019-02-05T08:17:06.682Z,73.27
2019-02-05T08:18:06.667Z,73.69
2019-02-05T08:19:06.711Z,73.49
2019-02-05T08:20:06.641Z,73.38
2019-02-05T08:21:06.633Z,73.69
2019-02-05T08:22:06.621Z,73.80
2019-02-05T08:23:06.611Z,74.42
2019-02-05T08:24:06.612Z,73.90
2019-02-05T08:25:06.589Z,73.90
2019-02-05T08:26:06.577Z,73.38
2019-02-05T08:27:06.565Z,72.86
2019-02-05T08:28:06.560Z,72.72
2019-02-05T08:29:06.561Z,73.03
2019-02-05T08:30:06.558Z,72.83
2019-02-05T08:31:06.525Z,73.03
2019-02-05T08:32:06.514Z,73.03
2019-02-05T08:33:06.525Z,72.62
2019-02-05T08:34:06.513Z,71.68
2019-02-05T08:35:06.484Z,72.62
2019-02-05T08:36:06.467Z,72.41
2019-02-05T08:37:06.457Z,72.51
2019-02-05T08:38:06.454Z,71.99
2019-02-05T08:39:06.464Z,72.20
2019-02-05T08:40:06.438Z,71.68
2019-02-05T08:41:06.413Z,72.83
2019-02-05T08:42:06.406Z,71.89
2019-02-05T08:43:06.387Z,71.58
2019-02-05T08:44:06.388Z,72.62
2019-02-05T08:45:06.371Z,71.89
2019-02-05T08:46:06.355Z,71.47
2019-02-05T08:47:06.343Z,71.99
2019-02-05T08:48:06.326Z,71.89
2019-02-05T08:49:06.335Z,71.16
2019-02-05T08:50:06.313Z,72.30
2019-02-05T08:51:06.306Z,71.68
2019-02-05T08:52:06.292Z,72.62
2019-02-05T08:53:06.274Z,71.99
2019-02-05T08:54:06.287Z,71.47
2019-02-05T08:55:06.281Z,71.99
2019-02-05T08:56:06.242Z,71.58
2019-02-05T08:57:06.246Z,71.75
2019-02-05T08:58:06.225Z,72.17
2019-02-05T08:59:06.211Z,71.47
2019-02-05T09:00:06.233Z,72.17
2019-02-05T09:01:06.193Z,71.37
2019-02-05T09:02:06.176Z,72.20
2019-02-05T09:03:06.163Z,72.20
2019-02-05T09:04:06.152Z,72.62
2019-02-05T09:05:06.179Z,73.00
2019-02-05T09:06:06.135Z,71.86
2019-02-05T09:07:06.138Z,72.27
2019-02-05T09:08:06.123Z,72.03
2019-02-05T09:09:06.104Z,71.20
2019-02-05T09:10:06.114Z,72.34
2019-02-05T09:11:06.078Z,72.03
2019-02-05T09:12:06.076Z,70.99
2019-02-05T09:13:06.056Z,71.30
2019-02-05T09:14:11.182Z,71.92
2019-02-05T09:15:07.046Z,71.37
2019-02-05T09:16:06.024Z,70.43
2019-02-05T09:17:06.006Z,71.20
2019-02-05T09:18:06.002Z,70.85
2019-02-05T09:19:05.986Z,71.20
2019-02-05T09:20:06.008Z,71.69
2019-02-05T09:21:05.964Z,71.06
2019-02-05T09:22:05.959Z,71.37
2019-02-05T09:23:05.945Z,71.06
2019-02-05T09:24:05.931Z,71.06
2019-02-05T09:25:05.941Z,71.27
2019-02-05T09:26:05.913Z,70.75
2019-02-05T09:27:05.897Z,70.02
2019-02-05T09:28:05.889Z,70.54
2019-02-05T09:29:05.881Z,70.64
2019-02-05T09:30:05.881Z,70.95
2019-02-05T09:31:05.867Z,70.54
2019-02-05T09:32:05.841Z,70.09
2019-02-05T09:33:05.832Z,70.02
2019-02-05T09:34:05.814Z,70.23
2019-02-05T09:35:05.842Z,70.95
2019-02-05T09:36:05.796Z,70.95
2019-02-05T09:37:05.798Z,70.43
2019-02-05T09:38:05.771Z,70.43
2019-02-05T09:39:05.764Z,70.43
2019-02-05T09:40:05.757Z,70.12
2019-02-05T09:41:05.774Z,71.27
2019-02-05T09:42:05.732Z,71.17
2019-02-05T09:43:05.720Z,70.64
2019-02-05T09:44:05.711Z,70.23
2019-02-05T09:45:05.695Z,70.75
2019-02-05T09:46:05.776Z,70.43
2019-02-05T09:47:05.680Z,70.61
2019-02-05T09:48:05.668Z,70.40
2019-02-05T09:49:05.652Z,69.99
2019-02-05T09:50:05.640Z,70.20
2019-02-05T09:51:05.654Z,70.79
2019-02-05T09:52:05.626Z,70.37
2019-02-05T09:53:05.618Z,70.27
2019-02-05T09:54:05.695Z,69.85
2019-02-05T09:55:05.598Z,69.57
2019-02-05T09:56:05.603Z,69.47
2019-02-05T09:57:05.581Z,69.99
2019-02-05T09:58:05.624Z,70.48
2019-02-05T09:59:05.569Z,69.54
2019-02-05T10:00:05.558Z,69.57
2019-02-05T10:01:05.591Z,69.12
2019-02-05T10:02:05.532Z,70.20
2019-02-05T10:03:05.522Z,70.09
2019-02-05T10:04:05.497Z,70.58
2019-02-05T10:05:05.486Z,69.96
2019-02-05T10:06:05.519Z,69.74
2019-02-05T10:07:05.467Z,69.74
2019-02-05T10:08:05.461Z,70.48
2019-02-05T10:09:05.440Z,71.10
2019-02-05T10:10:05.449Z,71.10
2019-02-05T10:11:05.442Z,70.58
2019-02-05T10:12:05.423Z,70.03
2019-02-05T10:13:05.391Z,69.64
2019-02-05T10:14:05.385Z,70.27
2019-02-05T10:15:05.390Z,70.17
2019-02-05T10:16:05.398Z,70.27
2019-02-05T10:17:05.371Z,69.33
2019-02-05T10:18:05.342Z,70.06
2019-02-05T10:19:05.342Z,70.58
2019-02-05T10:20:05.327Z,70.27
2019-02-05T10:21:05.329Z,70.17
2019-02-05T10:22:05.327Z,70.13
2019-02-05T10:23:05.281Z,70.37
2019-02-05T10:24:05.277Z,69.96
2019-02-05T10:25:05.261Z,69.51
2019-02-05T10:26:05.253Z,70.17
2019-02-05T10:27:05.279Z,71.00
2019-02-05T10:28:05.231Z,70.79
2019-02-05T10:29:05.210Z,71.28
2019-02-05T10:30:05.215Z,70.54
2019-02-05T10:31:05.203Z,70.58
2019-02-05T10:32:05.200Z,70.48
2019-02-05T10:33:05.175Z,70.97
2019-02-05T10:34:05.160Z,70.34
2019-02-05T10:35:05.155Z,70.44
2019-02-05T10:36:05.137Z,70.97
2019-02-05T10:37:05.139Z,70.97
2019-02-05T10:38:05.109Z,69.92
2019-02-05T10:39:05.106Z,71.07
2019-02-05T10:40:05.083Z,70.86
2019-02-05T10:41:05.084Z,71.59
2019-02-05T10:42:05.086Z,71.03
2019-02-05T10:43:05.063Z,71.80
2019-02-05T10:44:05.040Z,71.55
2019-02-05T10:45:05.493Z,71.03
2019-02-05T10:46:05.018Z,71.24
2019-02-05T10:47:05.055Z,71.45
2019-02-05T10:48:05.005Z,72.59
2019-02-05T10:49:04.994Z,71.42
2019-02-05T10:50:04.986Z,71.42
2019-02-05T10:51:05.007Z,71.21
2019-02-05T10:52:05.000Z,71.73
2019-02-05T10:53:04.949Z,71.31
2019-02-05T10:54:04.962Z,71.21
2019-02-05T10:55:04.929Z,71.83
2019-02-05T10:56:04.920Z,71.11
2019-02-05T10:57:04.931Z,70.17
2019-02-05T10:58:04.894Z,71.21
2019-02-05T10:59:04.884Z,71.52
2019-02-05T11:00:09.064Z,71.73
2019-02-05T11:01:04.861Z,71.94
2019-02-05T11:02:04.877Z,70.28
2019-02-05T11:03:04.857Z,70.90
2019-02-05T11:04:04.859Z,71.31
2019-02-05T11:05:05.250Z,71.62
2019-02-05T11:06:04.833Z,72.25
2019-02-05T11:07:04.832Z,72.56
2019-02-05T11:08:04.844Z,71.52
2019-02-05T11:09:04.775Z,71.52
2019-02-05T11:10:04.764Z,71.73
2019-02-05T11:11:04.764Z,71.83
2019-02-05T11:12:04.736Z,71.52
2019-02-05T11:13:04.734Z,71.42
2019-02-05T11:15:05.877Z,72.04
2019-02-05T11:16:04.689Z,71.91
2019-02-05T11:17:04.679Z,72.14
2019-02-05T11:18:04.698Z,72.04
2019-02-05T11:19:04.695Z,71.62
2019-02-05T11:20:04.665Z,71.52
2019-02-05T11:21:04.625Z,72.56
2019-02-05T11:23:05.776Z,72.11
2019-02-05T11:24:04.601Z,72.11
2019-02-05T11:25:04.587Z,72.32
2019-02-05T11:26:04.571Z,72.22
2019-02-05T11:27:04.558Z,72.63
2019-02-05T11:28:04.573Z,72.45
2019-02-05T11:29:04.545Z,72.53
2019-02-05T11:30:04.571Z,72.22
2019-02-05T11:31:04.517Z,72.63
2019-02-05T11:32:04.497Z,72.74
2019-02-05T11:33:04.508Z,72.32
2019-02-05T11:34:04.500Z,73.15
2019-02-05T11:35:04.465Z,72.42
2019-02-05T11:36:04.464Z,72.84
2019-02-05T11:37:04.446Z,73.67
2019-02-05T11:38:04.531Z,72.94
2019-02-05T11:39:04.437Z,74.08
2019-02-05T11:40:04.410Z,73.36
2019-02-05T11:41:04.411Z,73.36
2019-02-05T11:42:04.719Z,74.26
2019-02-05T11:43:04.424Z,72.91
2019-02-05T11:44:04.383Z,73.32
2019-02-05T11:45:04.408Z,74.05
2019-02-05T11:46:04.387Z,73.88
2019-02-05T11:47:04.355Z,74.08
2019-02-05T11:48:04.501Z,74.08
2019-02-05T11:49:04.306Z,74.19
2019-02-05T11:50:04.309Z,73.98
2019-02-05T11:51:04.310Z,74.19
2019-02-05T11:52:04.355Z,75.12
2019-02-05T11:53:04.290Z,75.02
2019-02-05T11:54:04.281Z,75.02
2019-02-05T11:55:04.249Z,74.60
2019-02-05T11:56:04.273Z,74.81
2019-02-05T11:57:04.249Z,75.33
2019-02-05T11:58:04.253Z,75.23
2019-02-05T11:59:04.220Z,75.09
2019-02-05T12:00:04.198Z,75.02
2019-02-05T12:01:04.192Z,74.77
2019-02-05T12:02:04.186Z,74.98
2019-02-05T12:03:04.190Z,75.40
2019-02-05T12:04:04.155Z,74.67
2019-02-05T12:05:04.145Z,75.12
2019-02-05T12:06:04.129Z,74.91
2019-02-05T12:07:04.116Z,75.19
2019-02-05T12:08:04.148Z,75.09
2019-02-05T12:09:04.121Z,74.46
2019-02-05T12:10:04.085Z,74.88
2019-02-05T12:11:04.071Z,74.98
2019-02-05T12:12:04.071Z,75.29
2019-02-05T12:13:04.114Z,74.98
2019-02-05T12:14:04.046Z,74.88
2019-02-05T12:15:04.034Z,74.88
2019-02-05T12:16:04.018Z,74.98
2019-02-05T12:17:04.006Z,74.77
2019-02-05T12:18:04.026Z,75.19
2019-02-05T12:19:04.005Z,74.88
2019-02-05T12:20:03.967Z,74.88
2019-02-05T12:21:03.963Z,75.60
2019-02-05T12:22:03.957Z,75.54
2019-02-05T12:23:03.938Z,75.43
2019-02-05T12:24:03.920Z,74.88
2019-02-05T12:25:03.904Z,74.98
2019-02-05T12:26:03.901Z,75.19
2019-02-05T12:27:03.902Z,75.09
2019-02-05T12:28:03.910Z,75.92
2019-02-05T12:29:03.871Z,75.60
2019-02-05T12:30:03.849Z,75.29
2019-02-05T12:31:03.843Z,75.60
2019-02-05T12:32:03.859Z,75.19
2019-02-05T12:33:03.825Z,75.40
2019-02-05T12:34:03.825Z,75.64
2019-02-05T12:35:03.795Z,75.64
2019-02-05T12:36:03.791Z,76.12
2019-02-05T12:37:03.778Z,75.40
2019-02-05T12:38:03.763Z,75.60
2019-02-05T12:39:03.796Z,75.60
2019-02-05T12:40:03.749Z,75.71
2019-02-05T12:41:03.726Z,75.50
2019-02-05T12:42:03.723Z,75.29
2019-02-05T12:43:03.704Z,75.60
2019-02-05T12:44:03.712Z,76.02
2019-02-05T12:45:03.691Z,75.92
2019-02-05T12:46:03.673Z,75.50
2019-02-05T12:47:03.665Z,76.02
2019-02-05T12:48:03.652Z,75.81
2019-02-05T12:49:03.673Z,75.71
2019-02-05T12:50:03.628Z,76.02
2019-02-05T12:51:03.619Z,75.60
2019-02-05T12:52:03.606Z,76.02
2019-02-05T12:53:03.600Z,75.40
2019-02-05T12:54:03.608Z,76.09